sensor_id;sensor_type;location;lat;lon;timestamp;pressure;altitude;pressure_sealevel;temperature;humidity
60920;BME280;59039;52.108;19.942;2023-05-11T00:01:18;101080.30;;;10.62;47.77
60920;BME280;59039;52.108;19.942;2023-05-11T00:03:43;101079.27;;;10.60;47.78
60920;BME280;59039;52.108;19.942;2023-05-11T00:06:08;101077.37;;;10.55;48.17
60920;BME280;59039;52.108;19.942;2023-05-11T00:08:34;101077.91;;;10.53;48.01
60920;BME280;59039;52.108;19.942;2023-05-11T00:11:00;101077.75;;;10.50;47.96
60920;BME280;59039;52.108;19.942;2023-05-11T00:13:26;101075.69;;;10.47;47.96
60920;BME280;59039;52.108;19.942;2023-05-11T00:16:01;101072.58;;;10.43;47.59
60920;BME280;59039;52.108;19.942;2023-05-11T00:18:27;101073.51;;;10.39;47.62
60920;BME280;59039;52.108;19.942;2023-05-11T00:20:52;101070.48;;;10.36;47.92
60920;BME280;59039;52.108;19.942;2023-05-11T00:23:27;101070.20;;;10.32;48.20
60920;BME280;59039;52.108;19.942;2023-05-11T00:25:52;101072.70;;;10.28;48.02
60920;BME280;59039;52.108;19.942;2023-05-11T00:28:18;101072.19;;;10.25;48.12
60920;BME280;59039;52.108;19.942;2023-05-11T00:30:43;101073.21;;;10.22;48.34
60920;BME280;59039;52.108;19.942;2023-05-11T00:33:08;101073.48;;;10.20;48.54
60920;BME280;59039;52.108;19.942;2023-05-11T00:35:34;101074.48;;;10.15;48.02
60920;BME280;59039;52.108;19.942;2023-05-11T00:38:08;101075.52;;;10.14;48.72
60920;BME280;59039;52.108;19.942;2023-05-11T00:40:42;101073.45;;;10.11;48.15
60920;BME280;59039;52.108;19.942;2023-05-11T00:43:14;101073.58;;;10.11;48.28
60920;BME280;59039;52.108;19.942;2023-05-11T00:46:00;101074.40;;;10.08;48.22
60920;BME280;59039;52.108;19.942;2023-05-11T00:48:26;101074.17;;;10.05;48.22
60920;BME280;59039;52.108;19.942;2023-05-11T00:50:52;101071.79;;;9.99;48.24
60920;BME280;59039;52.108;19.942;2023-05-11T00:53:18;101070.45;;;9.95;47.73
60920;BME280;59039;52.108;19.942;2023-05-11T00:55:44;101071.02;;;9.95;47.97
60920;BME280;59039;52.108;19.942;2023-05-11T00:58:30;101068.05;;;9.92;48.15
60920;BME280;59039;52.108;19.942;2023-05-11T01:01:02;101066.55;;;9.89;48.01
60920;BME280;59039;52.108;19.942;2023-05-11T01:03:28;101066.96;;;9.84;47.50
60920;BME280;59039;52.108;19.942;2023-05-11T01:06:21;101071.71;;;9.81;47.75
60920;BME280;59039;52.108;19.942;2023-05-11T01:09:47;101072.23;;;9.79;47.73
60920;BME280;59039;52.108;19.942;2023-05-11T01:12:02;101072.55;;;9.76;47.11
60920;BME280;59039;52.108;19.942;2023-05-11T01:14:45;101073.29;;;9.75;47.63
60920;BME280;59039;52.108;19.942;2023-05-11T01:17:24;101070.90;;;9.74;47.84
60920;BME280;59039;52.108;19.942;2023-05-11T01:20:02;101068.30;;;9.72;47.35
60920;BME280;59039;52.108;19.942;2023-05-11T01:28:14;101069.63;;;9.72;48.40
60920;BME280;59039;52.108;19.942;2023-05-11T01:30:53;101067.83;;;9.70;47.85
60920;BME280;59039;52.108;19.942;2023-05-11T01:33:24;101067.95;;;9.71;48.15
60920;BME280;59039;52.108;19.942;2023-05-11T01:35:54;101065.51;;;9.69;48.60
60920;BME280;59039;52.108;19.942;2023-05-11T01:38:24;101067.34;;;9.65;48.62
60920;BME280;59039;52.108;19.942;2023-05-11T01:40:55;101064.06;;;9.63;48.59
60920;BME280;59039;52.108;19.942;2023-05-11T01:43:25;101066.99;;;9.60;48.48
60920;BME280;59039;52.108;19.942;2023-05-11T01:45:55;101066.70;;;9.59;48.83
60920;BME280;59039;52.108;19.942;2023-05-11T01:48:25;101071.41;;;9.57;48.84
60920;BME280;59039;52.108;19.942;2023-05-11T01:50:52;101074.70;;;9.55;49.00
60920;BME280;59039;52.108;19.942;2023-05-11T01:53:21;101072.41;;;9.52;48.96
60920;BME280;59039;52.108;19.942;2023-05-11T01:55:48;101073.33;;;9.48;49.34
60920;BME280;59039;52.108;19.942;2023-05-11T01:58:15;101074.78;;;9.43;49.33
60920;BME280;59039;52.108;19.942;2023-05-11T02:00:45;101079.03;;;9.38;49.53
60920;BME280;59039;52.108;19.942;2023-05-11T02:03:13;101081.67;;;9.30;49.71
60920;BME280;59039;52.108;19.942;2023-05-11T02:05:40;101077.55;;;9.21;49.60
60920;BME280;59039;52.108;19.942;2023-05-11T02:08:07;101076.93;;;9.16;49.81
60920;BME280;59039;52.108;19.942;2023-05-11T02:10:34;101076.90;;;9.10;50.01
60920;BME280;59039;52.108;19.942;2023-05-11T02:13:02;101076.10;;;9.02;50.18
60920;BME280;59039;52.108;19.942;2023-05-11T02:15:28;101078.33;;;8.93;50.38
60920;BME280;59039;52.108;19.942;2023-05-11T02:17:54;101077.59;;;8.85;50.38
60920;BME280;59039;52.108;19.942;2023-05-11T02:20:20;101077.76;;;8.76;50.48
60920;BME280;59039;52.108;19.942;2023-05-11T02:22:47;101077.08;;;8.66;50.76
60920;BME280;59039;52.108;19.942;2023-05-11T02:25:35;101081.06;;;8.57;50.87
60920;BME280;59039;52.108;19.942;2023-05-11T02:27:59;101078.23;;;8.48;51.10
60920;BME280;59039;52.108;19.942;2023-05-11T02:30:26;101075.27;;;8.42;51.31
60920;BME280;59039;52.108;19.942;2023-05-11T02:32:54;101074.59;;;8.37;51.55
60920;BME280;59039;52.108;19.942;2023-05-11T02:35:23;101070.38;;;8.33;51.39
60920;BME280;59039;52.108;19.942;2023-05-11T02:40:37;101074.10;;;8.18;51.79
60920;BME280;59039;52.108;19.942;2023-05-11T02:43:14;101078.23;;;8.14;51.79
60920;BME280;59039;52.108;19.942;2023-05-11T02:45:44;101076.69;;;8.06;52.03
60920;BME280;59039;52.108;19.942;2023-05-11T02:48:27;101079.54;;;8.02;52.13
60920;BME280;59039;52.108;19.942;2023-05-11T02:50:54;101078.42;;;7.93;52.21
60920;BME280;59039;52.108;19.942;2023-05-11T02:53:31;101077.58;;;7.86;52.34
60920;BME280;59039;52.108;19.942;2023-05-11T02:55:57;101077.89;;;7.82;52.49
60920;BME280;59039;52.108;19.942;2023-05-11T02:58:23;101080.95;;;7.80;52.57
60920;BME280;59039;52.108;19.942;2023-05-11T03:00:49;101078.70;;;7.78;52.56
60920;BME280;59039;52.108;19.942;2023-05-11T03:03:14;101081.40;;;7.76;52.81
60920;BME280;59039;52.108;19.942;2023-05-11T03:05:42;101080.14;;;7.76;53.17
60920;BME280;59039;52.108;19.942;2023-05-11T03:08:07;101081.38;;;7.77;52.95
60920;BME280;59039;52.108;19.942;2023-05-11T03:10:33;101082.09;;;7.74;52.89
60920;BME280;59039;52.108;19.942;2023-05-11T03:12:59;101084.79;;;7.70;53.26
60920;BME280;59039;52.108;19.942;2023-05-11T03:15:25;101086.85;;;7.69;53.15
60920;BME280;59039;52.108;19.942;2023-05-11T03:17:52;101089.23;;;7.66;53.42
60920;BME280;59039;52.108;19.942;2023-05-11T03:20:20;101089.98;;;7.63;53.28
60920;BME280;59039;52.108;19.942;2023-05-11T03:22:46;101090.48;;;7.59;53.23
60920;BME280;59039;52.108;19.942;2023-05-11T03:25:13;101090.61;;;7.55;53.44
60920;BME280;59039;52.108;19.942;2023-05-11T03:27:41;101090.14;;;7.49;53.59
60920;BME280;59039;52.108;19.942;2023-05-11T03:30:17;101093.38;;;7.45;53.75
60920;BME280;59039;52.108;19.942;2023-05-11T03:32:44;101092.70;;;7.45;53.88
60920;BME280;59039;52.108;19.942;2023-05-11T03:35:09;101094.13;;;7.47;54.03
60920;BME280;59039;52.108;19.942;2023-05-11T03:37:36;101096.81;;;7.52;54.14
60920;BME280;59039;52.108;19.942;2023-05-11T03:40:02;101096.64;;;7.59;54.24
60920;BME280;59039;52.108;19.942;2023-05-11T03:42:29;101098.95;;;7.64;54.45
60920;BME280;59039;52.108;19.942;2023-05-11T03:44:56;101098.46;;;7.75;54.18
60920;BME280;59039;52.108;19.942;2023-05-11T03:47:22;101095.73;;;7.84;54.09
60920;BME280;59039;52.108;19.942;2023-05-11T03:49:50;101095.48;;;7.94;54.09
60920;BME280;59039;52.108;19.942;2023-05-11T03:52:17;101093.23;;;8.07;53.99
60920;BME280;59039;52.108;19.942;2023-05-11T03:54:43;101095.73;;;8.18;53.85
60920;BME280;59039;52.108;19.942;2023-05-11T03:57:13;101099.78;;;8.33;53.75
60920;BME280;59039;52.108;19.942;2023-05-11T03:59:38;101102.27;;;8.48;53.58
60920;BME280;59039;52.108;19.942;2023-05-11T04:02:04;101103.98;;;8.58;53.30
60920;BME280;59039;52.108;19.942;2023-05-11T04:04:30;101106.85;;;8.67;53.20
60920;BME280;59039;52.108;19.942;2023-05-11T04:06:56;101109.02;;;8.80;53.08
60920;BME280;59039;52.108;19.942;2023-05-11T04:09:22;101109.05;;;8.95;52.86
60920;BME280;59039;52.108;19.942;2023-05-11T04:11:47;101111.20;;;9.08;52.86
60920;BME280;59039;52.108;19.942;2023-05-11T04:14:13;101108.08;;;9.22;52.74
60920;BME280;59039;52.108;19.942;2023-05-11T04:16:58;101111.36;;;9.32;52.41
60920;BME280;59039;52.108;19.942;2023-05-11T04:19:23;101114.29;;;9.40;52.00
60920;BME280;59039;52.108;19.942;2023-05-11T04:21:49;101114.62;;;9.49;51.90
60920;BME280;59039;52.108;19.942;2023-05-11T04:24:14;101109.68;;;9.58;52.15
60920;BME280;59039;52.108;19.942;2023-05-11T04:26:39;101112.25;;;9.71;51.72
60920;BME280;59039;52.108;19.942;2023-05-11T04:29:05;101109.39;;;9.78;51.63
60920;BME280;59039;52.108;19.942;2023-05-11T04:31:30;101106.30;;;9.91;51.67
60920;BME280;59039;52.108;19.942;2023-05-11T04:33:56;101106.95;;;10.10;51.56
60920;BME280;59039;52.108;19.942;2023-05-11T04:36:24;101106.93;;;10.30;51.07
60920;BME280;59039;52.108;19.942;2023-05-11T04:38:50;101106.33;;;10.49;50.65
60920;BME280;59039;52.108;19.942;2023-05-11T04:41:18;101107.91;;;10.68;50.32
60920;BME280;59039;52.108;19.942;2023-05-11T04:43:43;101105.98;;;10.89;50.29
60920;BME280;59039;52.108;19.942;2023-05-11T04:46:08;101107.02;;;11.11;49.62
60920;BME280;59039;52.108;19.942;2023-05-11T04:48:33;101110.13;;;11.26;49.62
60920;BME280;59039;52.108;19.942;2023-05-11T04:51:07;101106.34;;;11.42;49.00
60920;BME280;59039;52.108;19.942;2023-05-11T04:53:33;101113.20;;;11.52;48.48
60920;BME280;59039;52.108;19.942;2023-05-11T04:55:58;101111.08;;;11.67;48.88
60920;BME280;59039;52.108;19.942;2023-05-11T04:58:23;101113.30;;;11.84;48.56
60920;BME280;59039;52.108;19.942;2023-05-11T05:00:49;101110.64;;;12.00;48.09
60920;BME280;59039;52.108;19.942;2023-05-11T05:03:23;101110.16;;;12.15;47.62
60920;BME280;59039;52.108;19.942;2023-05-11T05:05:49;101111.63;;;12.29;46.83
60920;BME280;59039;52.108;19.942;2023-05-11T05:08:20;101112.59;;;12.41;46.71
60920;BME280;59039;52.108;19.942;2023-05-11T05:10:46;101113.26;;;12.52;46.79
60920;BME280;59039;52.108;19.942;2023-05-11T05:13:11;101112.73;;;12.67;46.53
60920;BME280;59039;52.108;19.942;2023-05-11T05:15:37;101117.89;;;12.82;46.48
60920;BME280;59039;52.108;19.942;2023-05-11T05:18:02;101116.77;;;13.01;46.20
60920;BME280;59039;52.108;19.942;2023-05-11T05:20:27;101116.83;;;13.19;46.17
60920;BME280;59039;52.108;19.942;2023-05-11T05:22:53;101118.65;;;13.37;45.53
60920;BME280;59039;52.108;19.942;2023-05-11T05:25:18;101117.34;;;13.53;45.23
60920;BME280;59039;52.108;19.942;2023-05-11T05:27:43;101119.59;;;13.70;44.73
60920;BME280;59039;52.108;19.942;2023-05-11T05:30:09;101119.23;;;13.86;44.61
60920;BME280;59039;52.108;19.942;2023-05-11T05:32:37;101117.77;;;14.02;44.47
60920;BME280;59039;52.108;19.942;2023-05-11T05:35:03;101117.14;;;14.14;43.70
60920;BME280;59039;52.108;19.942;2023-05-11T05:37:28;101116.46;;;14.27;43.84
60920;BME280;59039;52.108;19.942;2023-05-11T05:39:54;101121.20;;;14.42;43.53
60920;BME280;59039;52.108;19.942;2023-05-11T05:42:19;101122.45;;;14.51;43.00
60920;BME280;59039;52.108;19.942;2023-05-11T05:44:45;101122.17;;;14.61;42.67
60920;BME280;59039;52.108;19.942;2023-05-11T05:47:10;101120.65;;;14.70;42.66
60920;BME280;59039;52.108;19.942;2023-05-11T05:49:35;101120.55;;;14.79;42.15
60920;BME280;59039;52.108;19.942;2023-05-11T05:52:01;101120.14;;;14.90;42.27
60920;BME280;59039;52.108;19.942;2023-05-11T05:54:26;101124.60;;;15.06;41.82
60920;BME280;59039;52.108;19.942;2023-05-11T05:56:55;101123.80;;;15.20;41.24
60920;BME280;59039;52.108;19.942;2023-05-11T05:59:20;101119.55;;;15.31;41.42
60920;BME280;59039;52.108;19.942;2023-05-11T06:01:45;101120.78;;;15.46;41.49
60920;BME280;59039;52.108;19.942;2023-05-11T06:04:11;101121.27;;;15.63;41.04
60920;BME280;59039;52.108;19.942;2023-05-11T06:06:46;101118.95;;;15.79;40.73
60920;BME280;59039;52.108;19.942;2023-05-11T06:09:12;101116.79;;;16.00;40.23
60920;BME280;59039;52.108;19.942;2023-05-11T06:11:37;101116.27;;;16.21;39.80
60920;BME280;59039;52.108;19.942;2023-05-11T06:14:10;101117.70;;;16.37;39.21
60920;BME280;59039;52.108;19.942;2023-05-11T06:16:35;101114.77;;;16.48;38.02
60920;BME280;59039;52.108;19.942;2023-05-11T06:19:01;101115.18;;;16.55;37.99
60920;BME280;59039;52.108;19.942;2023-05-11T06:21:29;101117.67;;;16.66;37.91
60920;BME280;59039;52.108;19.942;2023-05-11T06:24:03;101117.88;;;16.80;37.63
60920;BME280;59039;52.108;19.942;2023-05-11T06:26:28;101115.20;;;16.91;37.23
60920;BME280;59039;52.108;19.942;2023-05-11T06:28:53;101118.04;;;17.06;36.77
60920;BME280;59039;52.108;19.942;2023-05-11T06:31:19;101119.27;;;17.17;36.79
60920;BME280;59039;52.108;19.942;2023-05-11T06:33:44;101119.10;;;17.34;34.18
60920;BME280;59039;52.108;19.942;2023-05-11T06:36:10;101119.27;;;17.42;32.90
60920;BME280;59039;52.108;19.942;2023-05-11T06:38:35;101117.95;;;17.41;32.03
60920;BME280;59039;52.108;19.942;2023-05-11T06:41:00;101112.35;;;17.45;31.37
60920;BME280;59039;52.108;19.942;2023-05-11T06:43:36;101115.82;;;17.46;31.23
60920;BME280;59039;52.108;19.942;2023-05-11T06:46:02;101113.90;;;17.50;31.46
60920;BME280;59039;52.108;19.942;2023-05-11T06:48:28;101114.03;;;17.60;30.53
60920;BME280;59039;52.108;19.942;2023-05-11T06:50:53;101110.11;;;17.59;30.37
60920;BME280;59039;52.108;19.942;2023-05-11T06:53:18;101116.73;;;17.57;29.43
60920;BME280;59039;52.108;19.942;2023-05-11T06:55:44;101109.77;;;17.54;29.59
60920;BME280;59039;52.108;19.942;2023-05-11T06:58:09;101111.10;;;17.52;30.06
60920;BME280;59039;52.108;19.942;2023-05-11T07:00:37;101110.96;;;17.56;29.80
60920;BME280;59039;52.108;19.942;2023-05-11T07:03:02;101109.39;;;17.60;29.14
60920;BME280;59039;52.108;19.942;2023-05-11T07:05:35;101110.99;;;17.65;28.40
60920;BME280;59039;52.108;19.942;2023-05-11T07:08:04;101113.27;;;17.63;27.58
60920;BME280;59039;52.108;19.942;2023-05-11T07:10:30;101111.84;;;17.55;27.10
60920;BME280;59039;52.108;19.942;2023-05-11T07:12:55;101114.75;;;17.50;26.83
60920;BME280;59039;52.108;19.942;2023-05-11T07:15:26;101110.29;;;17.45;27.55
60920;BME280;59039;52.108;19.942;2023-05-11T07:17:52;101117.47;;;17.46;27.12
60920;BME280;59039;52.108;19.942;2023-05-11T07:20:17;101110.77;;;17.44;26.63
60920;BME280;59039;52.108;19.942;2023-05-11T07:22:54;101104.77;;;17.38;26.49
60920;BME280;59039;52.108;19.942;2023-05-11T07:25:20;101112.11;;;17.36;27.12
60920;BME280;59039;52.108;19.942;2023-05-11T07:28:14;101110.04;;;17.41;27.56
60920;BME280;59039;52.108;19.942;2023-05-11T07:30:41;101109.79;;;17.49;27.98
60920;BME280;59039;52.108;19.942;2023-05-11T07:33:06;101111.66;;;17.64;27.64
60920;BME280;59039;52.108;19.942;2023-05-11T07:35:43;101114.73;;;17.74;27.76
60920;BME280;59039;52.108;19.942;2023-05-11T07:38:08;101114.03;;;17.80;27.63
60920;BME280;59039;52.108;19.942;2023-05-11T07:40:41;101114.71;;;17.83;27.79
60920;BME280;59039;52.108;19.942;2023-05-11T07:43:15;101111.52;;;17.87;27.18
60920;BME280;59039;52.108;19.942;2023-05-11T07:45:41;101110.36;;;17.86;27.34
60920;BME280;59039;52.108;19.942;2023-05-11T07:48:08;101116.68;;;17.89;27.45
60920;BME280;59039;52.108;19.942;2023-05-11T07:50:36;101112.54;;;17.89;27.67
60920;BME280;59039;52.108;19.942;2023-05-11T07:53:01;101110.65;;;17.92;27.49
60920;BME280;59039;52.108;19.942;2023-05-11T07:55:55;101107.39;;;17.94;27.77
60920;BME280;59039;52.108;19.942;2023-05-11T07:58:20;101106.39;;;18.03;27.81
60920;BME280;59039;52.108;19.942;2023-05-11T08:00:45;101107.24;;;18.10;27.08
60920;BME280;59039;52.108;19.942;2023-05-11T08:03:10;101105.55;;;18.04;27.21
60920;BME280;59039;52.108;19.942;2023-05-11T08:05:36;101102.51;;;18.05;27.35
60920;BME280;59039;52.108;19.942;2023-05-11T08:08:02;101098.64;;;18.10;27.85
60920;BME280;59039;52.108;19.942;2023-05-11T08:10:35;101097.58;;;18.17;28.05
60920;BME280;59039;52.108;19.942;2023-05-11T08:13:01;101098.00;;;18.28;27.91
60920;BME280;59039;52.108;19.942;2023-05-11T08:15:26;101096.20;;;18.32;28.01
60920;BME280;59039;52.108;19.942;2023-05-11T08:17:52;101093.03;;;18.39;28.01
60920;BME280;59039;52.108;19.942;2023-05-11T08:20:17;101092.10;;;18.42;27.86
60920;BME280;59039;52.108;19.942;2023-05-11T08:22:45;101099.88;;;18.45;27.45
60920;BME280;59039;52.108;19.942;2023-05-11T08:25:11;101101.31;;;18.43;27.26
60920;BME280;59039;52.108;19.942;2023-05-11T08:27:36;101095.65;;;18.36;27.43
60920;BME280;59039;52.108;19.942;2023-05-11T08:30:02;101092.02;;;18.31;27.50
60920;BME280;59039;52.108;19.942;2023-05-11T08:32:28;101090.13;;;18.23;27.51
60920;BME280;59039;52.108;19.942;2023-05-11T08:34:53;101098.84;;;18.17;27.86
60920;BME280;59039;52.108;19.942;2023-05-11T08:37:19;101092.23;;;18.19;27.80
60920;BME280;59039;52.108;19.942;2023-05-11T08:39:44;101089.19;;;18.14;28.02
60920;BME280;59039;52.108;19.942;2023-05-11T08:42:10;101084.73;;;18.08;28.05
60920;BME280;59039;52.108;19.942;2023-05-11T08:44:41;101084.92;;;18.01;28.21
60920;BME280;59039;52.108;19.942;2023-05-11T08:47:07;101087.29;;;17.95;28.19
60920;BME280;59039;52.108;19.942;2023-05-11T08:49:33;101085.43;;;17.92;28.58
60920;BME280;59039;52.108;19.942;2023-05-11T08:52:11;101086.66;;;17.90;28.71
60920;BME280;59039;52.108;19.942;2023-05-11T08:54:40;101083.88;;;17.88;28.73
60920;BME280;59039;52.108;19.942;2023-05-11T08:57:05;101085.02;;;17.88;28.74
60920;BME280;59039;52.108;19.942;2023-05-11T08:59:31;101083.09;;;17.87;28.83
60920;BME280;59039;52.108;19.942;2023-05-11T09:01:57;101082.36;;;17.86;29.12
60920;BME280;59039;52.108;19.942;2023-05-11T09:04:25;101089.98;;;17.89;28.95
60920;BME280;59039;52.108;19.942;2023-05-11T09:07:00;101087.77;;;17.83;28.55
60920;BME280;59039;52.108;19.942;2023-05-11T09:09:35;101083.16;;;17.77;28.78
60920;BME280;59039;52.108;19.942;2023-05-11T09:12:01;101084.39;;;17.73;28.80
60920;BME280;59039;52.108;19.942;2023-05-11T09:14:47;101084.14;;;17.67;29.09
60920;BME280;59039;52.108;19.942;2023-05-11T09:17:12;101088.08;;;17.63;29.29
60920;BME280;59039;52.108;19.942;2023-05-11T09:19:56;101089.77;;;17.65;29.44
60920;BME280;59039;52.108;19.942;2023-05-11T09:22:22;101092.39;;;17.63;29.02
60920;BME280;59039;52.108;19.942;2023-05-11T09:24:47;101088.30;;;17.59;29.31
60920;BME280;59039;52.108;19.942;2023-05-11T09:27:13;101084.52;;;17.60;29.09
60920;BME280;59039;52.108;19.942;2023-05-11T09:29:38;101082.83;;;17.59;29.53
60920;BME280;59039;52.108;19.942;2023-05-11T09:32:06;101089.22;;;17.60;29.59
60920;BME280;59039;52.108;19.942;2023-05-11T09:34:32;101086.41;;;17.58;29.69
60920;BME280;59039;52.108;19.942;2023-05-11T09:36:57;101083.78;;;17.57;29.66
60920;BME280;59039;52.108;19.942;2023-05-11T09:39:37;101084.70;;;17.54;29.83
60920;BME280;59039;52.108;19.942;2023-05-11T09:42:17;101090.05;;;17.52;30.07
60920;BME280;59039;52.108;19.942;2023-05-11T09:44:52;101094.75;;;17.55;29.97
60920;BME280;59039;52.108;19.942;2023-05-11T09:47:19;101081.94;;;17.51;29.77
60920;BME280;59039;52.108;19.942;2023-05-11T09:49:45;101080.30;;;17.46;30.16
60920;BME280;59039;52.108;19.942;2023-05-11T09:52:16;101082.71;;;17.49;29.94
60920;BME280;59039;52.108;19.942;2023-05-11T09:57:28;101076.45;;;17.49;30.18
60920;BME280;59039;52.108;19.942;2023-05-11T10:00:33;101076.96;;;17.46;29.83
60920;BME280;59039;52.108;19.942;2023-05-11T10:03:18;101076.96;;;17.46;30.14
60920;BME280;59039;52.108;19.942;2023-05-11T10:05:58;101073.08;;;17.47;30.09
60920;BME280;59039;52.108;19.942;2023-05-11T10:08:32;101067.40;;;17.48;30.57
60920;BME280;59039;52.108;19.942;2023-05-11T10:10:58;101066.23;;;17.52;30.68
60920;BME280;59039;52.108;19.942;2023-05-11T10:13:51;101060.83;;;17.57;30.46
60920;BME280;59039;52.108;19.942;2023-05-11T10:16:17;101053.41;;;17.59;30.58
60920;BME280;59039;52.108;19.942;2023-05-11T10:18:56;101056.67;;;17.64;30.86
60920;BME280;59039;52.108;19.942;2023-05-11T10:21:23;101055.39;;;17.73;30.92
60920;BME280;59039;52.108;19.942;2023-05-11T10:23:49;101057.98;;;17.81;30.61
60920;BME280;59039;52.108;19.942;2023-05-11T10:26:15;101051.52;;;17.86;30.50
60920;BME280;59039;52.108;19.942;2023-05-11T10:28:40;101047.99;;;17.90;30.42
60920;BME280;59039;52.108;19.942;2023-05-11T10:31:17;101044.17;;;17.92;30.15
60920;BME280;59039;52.108;19.942;2023-05-11T10:33:43;101043.98;;;17.93;30.24
60920;BME280;59039;52.108;19.942;2023-05-11T10:36:09;101040.33;;;17.95;30.22
60920;BME280;59039;52.108;19.942;2023-05-11T10:38:35;101042.14;;;17.97;30.20
60920;BME280;59039;52.108;19.942;2023-05-11T10:41:06;101043.82;;;17.96;30.11
60920;BME280;59039;52.108;19.942;2023-05-11T10:46:38;101036.81;;;17.92;30.75
60920;BME280;59039;52.108;19.942;2023-05-11T10:52:02;101032.45;;;17.96;30.56
60920;BME280;59039;52.108;19.942;2023-05-11T10:58:22;101021.23;;;17.92;30.41
60920;BME280;59039;52.108;19.942;2023-05-11T11:04:17;101021.66;;;17.98;30.77
60920;BME280;59039;52.108;19.942;2023-05-11T11:06:42;101022.95;;;18.01;30.29
60920;BME280;59039;52.108;19.942;2023-05-11T11:09:17;101019.38;;;18.01;30.51
60920;BME280;59039;52.108;19.942;2023-05-11T11:12:12;101024.03;;;18.01;30.58
60920;BME280;59039;52.108;19.942;2023-05-11T11:15:04;101017.52;;;18.00;30.84
60920;BME280;59039;52.108;19.942;2023-05-11T11:17:31;101014.05;;;18.01;30.82
60920;BME280;59039;52.108;19.942;2023-05-11T11:20:00;101010.52;;;18.03;30.69
60920;BME280;59039;52.108;19.942;2023-05-11T11:22:55;101013.81;;;18.05;31.12
60920;BME280;59039;52.108;19.942;2023-05-11T11:25:51;101021.22;;;18.10;30.80
60920;BME280;59039;52.108;19.942;2023-05-11T11:31:31;101011.88;;;18.08;30.81
60920;BME280;59039;52.108;19.942;2023-05-11T11:39:20;101010.66;;;18.15;30.89
60920;BME280;59039;52.108;19.942;2023-05-11T11:42:30;101005.67;;;18.16;30.91
60920;BME280;59039;52.108;19.942;2023-05-11T11:44:44;101007.05;;;18.13;31.50
60920;BME280;59039;52.108;19.942;2023-05-11T11:47:16;101006.76;;;18.17;31.35
60920;BME280;59039;52.108;19.942;2023-05-11T11:49:43;101008.05;;;18.20;31.07
60920;BME280;59039;52.108;19.942;2023-05-11T11:52:13;101002.14;;;18.17;31.43
60920;BME280;59039;52.108;19.942;2023-05-11T11:54:43;101003.27;;;18.20;31.56
60920;BME280;59039;52.108;19.942;2023-05-11T11:57:44;101006.52;;;18.25;31.35
60920;BME280;59039;52.108;19.942;2023-05-11T12:00:09;101002.80;;;18.30;31.51
60920;BME280;59039;52.108;19.942;2023-05-11T12:03:00;101001.98;;;18.35;31.56
60920;BME280;59039;52.108;19.942;2023-05-11T12:05:34;101004.43;;;18.40;31.62
60920;BME280;59039;52.108;19.942;2023-05-11T12:08:05;101006.00;;;18.44;31.05
60920;BME280;59039;52.108;19.942;2023-05-11T12:10:30;101005.52;;;18.45;31.30
60920;BME280;59039;52.108;19.942;2023-05-11T12:13:00;101003.30;;;18.47;31.18
60920;BME280;59039;52.108;19.942;2023-05-11T12:15:30;100999.61;;;18.50;31.05
60920;BME280;59039;52.108;19.942;2023-05-11T12:17:55;100998.53;;;18.52;31.32
60920;BME280;59039;52.108;19.942;2023-05-11T12:20:21;100997.80;;;18.58;31.47
60920;BME280;59039;52.108;19.942;2023-05-11T12:22:47;100994.34;;;18.62;31.17
60920;BME280;59039;52.108;19.942;2023-05-11T12:25:23;100990.48;;;18.66;31.21
60920;BME280;59039;52.108;19.942;2023-05-11T12:27:57;100990.16;;;18.68;31.30
60920;BME280;59039;52.108;19.942;2023-05-11T12:30:28;100987.98;;;18.69;30.86
60920;BME280;59039;52.108;19.942;2023-05-11T12:32:54;100988.04;;;18.71;31.25
60920;BME280;59039;52.108;19.942;2023-05-11T12:35:27;100981.16;;;18.72;30.69
60920;BME280;59039;52.108;19.942;2023-05-11T12:37:54;100982.58;;;18.71;31.11
60920;BME280;59039;52.108;19.942;2023-05-11T12:40:30;100984.70;;;18.73;31.30
60920;BME280;59039;52.108;19.942;2023-05-11T12:42:59;100980.20;;;18.77;30.78
60920;BME280;59039;52.108;19.942;2023-05-11T12:45:25;100974.92;;;18.78;31.22
60920;BME280;59039;52.108;19.942;2023-05-11T12:47:54;100968.47;;;18.80;31.18
60920;BME280;59039;52.108;19.942;2023-05-11T12:50:20;100970.38;;;18.81;31.20
60920;BME280;59039;52.108;19.942;2023-05-11T12:52:46;100973.72;;;18.81;30.84
60920;BME280;59039;52.108;19.942;2023-05-11T12:55:35;100973.14;;;18.81;30.84
60920;BME280;59039;52.108;19.942;2023-05-11T12:58:10;100967.11;;;18.79;31.09
60920;BME280;59039;52.108;19.942;2023-05-11T13:00:56;100964.23;;;18.81;31.10
60920;BME280;59039;52.108;19.942;2023-05-11T13:03:28;100969.42;;;18.87;31.21
60920;BME280;59039;52.108;19.942;2023-05-11T13:06:27;100966.04;;;18.90;30.66
60920;BME280;59039;52.108;19.942;2023-05-11T13:08:52;100969.40;;;18.91;30.90
60920;BME280;59039;52.108;19.942;2023-05-11T13:14:30;100970.33;;;18.97;30.79
60920;BME280;59039;52.108;19.942;2023-05-11T13:16:58;100962.67;;;18.94;30.84
60920;BME280;59039;52.108;19.942;2023-05-11T13:19:27;100961.95;;;18.92;30.81
60920;BME280;59039;52.108;19.942;2023-05-11T13:22:16;100959.61;;;18.92;30.94
60920;BME280;59039;52.108;19.942;2023-05-11T13:25:01;100954.52;;;18.91;31.05
60920;BME280;59039;52.108;19.942;2023-05-11T13:27:26;100955.86;;;18.95;31.26
60920;BME280;59039;52.108;19.942;2023-05-11T13:29:52;100951.15;;;18.97;30.81
60920;BME280;59039;52.108;19.942;2023-05-11T13:32:17;100956.00;;;19.00;30.86